Time;durP1;ratioP1;P1;durP2;ratioP2;P2;SDS_P1;SDS_P2;PMS_P1;PMS_P2;Temp;Humidity;BMP_temperature;BMP_pressure;BME280_temperature;BME280_humidity;BME280_pressure;Samples;Min_cycle;Max_cycle;Signal;HPM_P1;HPM_P2
2021/04/30 00:01:29;;;;;;;11.70;7.30;;;;;;;10.31;87.15;96110.72;5013684;28;20046;-63
2021/04/30 00:03:54;;;;;;;13.68;7.65;;;;;;;10.31;86.94;96116.19;5022615;28;20041;-63
2021/04/30 00:06:20;;;;;;;10.93;7.72;;;;;;;10.34;86.80;96117.41;5021015;28;20057;-62
2021/04/30 00:08:46;;;;;;;13.48;7.20;;;;;;;10.38;85.72;96114.69;5023340;28;20045;-61
2021/04/30 00:11:11;;;;;;;12.05;8.13;;;;;;;10.35;85.41;96116.22;5016760;28;20045;-69
2021/04/30 00:13:38;;;;;;;14.00;7.85;;;;;;;9.92;87.36;96105.69;5020655;28;20052;-64
2021/04/30 00:16:05;;;;;;;13.82;9.07;;;;;;;9.62;89.88;96111.25;4999459;28;20076;-63
2021/04/30 00:18:31;;;;;;;16.13;8.43;;;;;;;9.69;89.06;96105.06;5019994;28;20037;-61
2021/04/30 00:20:58;;;;;;;12.57;8.10;;;;;;;9.80;88.57;96108.69;5001390;28;20476;-63
2021/04/30 00:23:27;;;;;;;20.58;9.60;;;;;;;9.81;88.13;96098.53;4994510;28;20129;-62
2021/04/30 00:25:57;;;;;;;12.20;7.43;;;;;;;9.89;87.21;96102.91;5002201;28;20108;-63
2021/04/30 00:28:23;;;;;;;17.27;8.88;;;;;;;9.67;86.98;96104.63;4996715;28;20064;-63
2021/04/30 00:30:50;;;;;;;17.65;9.38;;;;;;;9.67;87.03;96097.22;5002774;28;20030;-63
2021/04/30 00:33:16;;;;;;;11.57;7.97;;;;;;;9.93;84.08;96099.03;4996258;28;20076;-63
2021/04/30 00:35:42;;;;;;;11.57;8.45;;;;;;;10.16;81.98;96100.81;5001619;28;20073;-63
2021/04/30 00:38:09;;;;;;;9.02;6.95;;;;;;;10.19;79.58;96097.31;4996352;28;20093;-64
2021/04/30 00:40:35;;;;;;;10.20;7.05;;;;;;;10.25;77.45;96098.53;5003297;28;20041;-62
2021/04/30 00:43:01;;;;;;;10.50;7.00;;;;;;;10.24;76.86;96094.22;5013811;28;20124;-64
2021/04/30 00:45:27;;;;;;;14.93;7.28;;;;;;;10.19;76.35;96097.31;5017643;28;20100;-64
2021/04/30 00:47:54;;;;;;;10.30;7.10;;;;;;;10.22;75.29;96093.81;5023927;28;20824;-63
2021/04/30 00:50:21;;;;;;;11.55;6.80;;;;;;;10.21;74.44;96094.97;5012160;28;20385;-64
2021/04/30 00:52:47;;;;;;;13.13;7.18;;;;;;;10.24;74.89;96096.16;5021724;28;20047;-64
2021/04/30 00:55:15;;;;;;;11.95;7.75;;;;;;;10.17;73.91;96088.69;5015471;28;20045;-63
2021/04/30 00:57:47;;;;;;;12.55;7.80;;;;;;;9.68;77.21;96087.84;5020340;28;20050;-63
2021/04/30 01:00:14;;;;;;;12.85;7.97;;;;;;;9.33;78.30;96096.47;5014083;28;20492;-64
2021/04/30 01:02:40;;;;;;;13.48;7.55;;;;;;;9.23;78.00;96094.41;5019529;28;20049;-63
2021/04/30 01:05:07;;;;;;;12.40;7.90;;;;;;;9.09;77.18;96089.53;5018395;28;20033;-63
2021/04/30 01:07:33;;;;;;;11.68;8.00;;;;;;;9.05;76.53;96089.50;5035769;28;20187;-64
2021/04/30 01:09:59;;;;;;;11.88;7.47;;;;;;;9.04;77.50;96096.13;5016768;28;20052;-62
2021/04/30 01:12:24;;;;;;;18.77;8.85;;;;;;;8.97;77.25;96094.09;4995730;28;20501;-64
2021/04/30 01:14:51;;;;;;;12.60;7.43;;;;;;;8.94;76.35;96099.50;5002185;28;20038;-64
2021/04/30 01:17:16;;;;;;;10.18;7.10;;;;;;;8.96;76.61;96110.84;5009696;28;20041;-64
2021/04/30 01:19:42;;;;;;;10.88;7.70;;;;;;;8.97;76.70;96106.97;5010182;28;20393;-65
2021/04/30 01:22:08;;;;;;;13.82;7.45;;;;;;;8.96;75.41;96108.13;5017892;28;20039;-61
2021/04/30 01:24:33;;;;;;;13.98;8.05;;;;;;;8.96;75.65;96110.84;5013423;28;20517;-64
2021/04/30 01:26:58;;;;;;;12.75;8.10;;;;;;;8.94;74.64;96107.69;5000739;28;20049;-63
2021/04/30 01:29:25;;;;;;;11.70;7.82;;;;;;;8.90;75.90;96110.38;5019730;28;20525;-64
2021/04/30 01:31:50;;;;;;;9.75;7.30;;;;;;;8.89;75.10;96111.53;5017931;28;20516;-64
2021/04/30 01:34:16;;;;;;;15.60;7.32;;;;;;;8.87;75.53;96118.53;5009784;28;20041;-64
2021/04/30 01:36:42;;;;;;;11.75;7.60;;;;;;;8.86;75.73;96119.69;5028405;28;20095;-64
2021/04/30 01:39:12;;;;;;;11.45;8.15;;;;;;;8.84;75.05;96111.88;5023804;28;20111;-64
2021/04/30 01:41:39;;;;;;;10.18;7.05;;;;;;;8.84;75.09;96111.06;5025273;28;20052;-63
2021/04/30 01:44:09;;;;;;;13.15;7.53;;;;;;;8.84;75.22;96120.06;5006683;28;20041;-64
2021/04/30 01:46:35;;;;;;;;;;;;;;;8.84;75.44;96111.88;5015519;28;20037;-63
2021/04/30 01:49:00;;;;;;;14.00;7.57;;;;;;;8.84;74.29;96105.59;5002092;28;19935;-63
2021/04/30 01:51:26;;;;;;;12.20;7.80;;;;;;;8.80;75.50;96102.81;5018273;28;20041;-62
2021/04/30 01:53:52;;;;;;;13.13;7.82;;;;;;;8.77;76.04;96095.41;5020550;28;20125;-65
2021/04/30 01:56:18;;;;;;;17.42;9.48;;;;;;;8.72;76.78;96092.97;5014323;28;20037;-63
2021/04/30 01:58:43;;;;;;;14.13;7.97;;;;;;;8.73;76.12;96095.34;5019557;28;20041;-64
2021/04/30 02:01:10;;;;;;;12.35;7.90;;;;;;;8.74;76.01;96101.59;5008214;28;20048;-62
2021/04/30 02:03:35;;;;;;;11.13;7.82;;;;;;;8.75;75.88;96103.16;5019070;28;20382;-64
2021/04/30 02:06:01;;;;;;;12.80;7.68;;;;;;;8.80;75.22;96109.09;5017285;28;20177;-63
2021/04/30 02:08:27;;;;;;;12.20;7.63;;;;;;;8.92;75.68;96107.28;5019069;28;20073;-63
2021/04/30 02:10:53;;;;;;;12.43;7.68;;;;;;;8.93;75.25;96112.38;5022575;28;20441;-63
2021/04/30 02:13:20;;;;;;;13.45;7.90;;;;;;;8.91;75.07;96105.69;5017250;28;20033;-63
2021/04/30 02:15:51;;;;;;;15.88;7.22;;;;;;;8.98;75.78;96101.13;5025294;28;20076;-64
2021/04/30 02:18:17;;;;;;;14.05;8.02;;;;;;;8.86;75.35;96101.38;5023965;28;20056;-63
2021/04/30 02:20:43;;;;;;;13.23;7.60;;;;;;;8.82;75.50;96097.00;5029237;28;20049;-63
2021/04/30 02:23:09;;;;;;;14.30;8.05;;;;;;;8.77;76.71;96092.66;5019990;28;20063;-62
2021/04/30 02:25:36;;;;;;;14.95;7.28;;;;;;;8.81;77.13;96096.22;5004844;28;20069;-63
2021/04/30 02:28:03;;;;;;;15.07;7.93;;;;;;;8.89;76.03;96097.09;5018432;28;20117;-63
2021/04/30 02:30:31;;;;;;;17.23;7.70;;;;;;;8.76;76.54;96097.31;5019686;28;20412;-63
2021/04/30 02:32:57;;;;;;;13.48;8.48;;;;;;;8.66;77.50;96095.25;5021636;28;20046;-63
2021/04/30 02:35:27;;;;;;;12.75;7.65;;;;;;;8.63;76.82;96090.53;5016338;28;21296;-62
2021/04/30 02:37:53;;;;;;;12.95;8.88;;;;;;;8.63;76.59;96093.25;5014279;28;20042;-63
2021/04/30 02:40:23;;;;;;;12.85;8.38;;;;;;;8.64;77.09;96085.84;5009761;28;20034;-63
2021/04/30 02:42:49;;;;;;;12.68;8.32;;;;;;;8.66;76.37;96099.91;5022133;28;20136;-64
2021/04/30 02:45:17;;;;;;;11.43;7.70;;;;;;;8.70;76.62;96089.84;5019118;28;20157;-62
2021/04/30 02:47:48;;;;;;;12.07;8.40;;;;;;;8.79;75.77;96085.66;5023303;28;20045;-64
2021/04/30 02:50:16;;;;;;;11.18;7.82;;;;;;;8.80;75.54;96079.06;5017466;28;20336;-63
2021/04/30 02:52:42;;;;;;;13.93;7.70;;;;;;;8.81;74.80;96082.56;5017105;28;20070;-63
2021/04/30 02:55:08;;;;;;;10.43;7.10;;;;;;;8.78;75.04;96077.84;5001566;28;20046;-64
2021/04/30 02:57:34;;;;;;;13.60;8.18;;;;;;;8.75;74.76;96063.00;5023248;28;20145;-62
2021/04/30 03:00:00;;;;;;;12.90;7.88;;;;;;;8.72;75.05;96066.47;5019961;28;20131;-63
2021/04/30 03:02:26;;;;;;;15.43;9.63;;;;;;;8.72;74.54;96066.47;4992994;28;20076;-63
2021/04/30 03:04:52;;;;;;;13.65;8.00;;;;;;;8.76;74.07;96058.31;5028597;28;20564;-63
2021/04/30 03:07:17;;;;;;;14.73;7.65;;;;;;;8.73;74.17;96062.59;5001055;28;20072;-63
2021/04/30 03:09:43;;;;;;;14.43;7.38;;;;;;;8.71;73.76;96044.97;5024329;28;20389;-64
2021/04/30 03:12:09;;;;;;;12.18;8.07;;;;;;;8.65;73.56;96038.28;5017713;28;20128;-63
2021/04/30 03:14:34;;;;;;;12.45;8.13;;;;;;;8.67;73.95;96049.63;5005891;28;20473;-63
2021/04/30 03:17:00;;;;;;;12.43;7.90;;;;;;;8.64;74.68;96058.53;5023183;28;20069;-63
2021/04/30 03:19:25;;;;;;;12.00;8.27;;;;;;;8.65;74.19;96057.41;5009751;28;20053;-64
2021/04/30 03:21:51;;;;;;;13.02;8.02;;;;;;;8.68;73.51;96064.81;5011185;28;20080;-64
2021/04/30 03:24:17;;;;;;;13.38;8.63;;;;;;;8.66;74.19;96065.22;5016469;28;20413;-63
2021/04/30 03:26:42;;;;;;;15.15;8.13;;;;;;;8.65;74.68;96068.31;5022682;28;20037;-64
2021/04/30 03:29:08;;;;;;;15.23;9.15;;;;;;;8.65;74.06;96063.63;5010146;28;20040;-63
2021/04/30 03:31:34;;;;;;;14.48;8.20;;;;;;;8.63;74.60;96067.91;5018538;28;20057;-65
2021/04/30 03:33:59;;;;;;;11.93;7.97;;;;;;;8.65;75.36;96079.22;5022111;28;20037;-64
2021/04/30 03:36:25;;;;;;;13.43;8.15;;;;;;;8.64;75.56;96080.38;5008709;28;20432;-64
2021/04/30 03:38:51;;;;;;;13.70;8.68;;;;;;;8.63;75.59;96076.88;5020200;28;20084;-65
2021/04/30 03:41:18;;;;;;;12.90;7.90;;;;;;;8.64;75.78;96069.47;5011117;28;20048;-64
2021/04/30 03:43:44;;;;;;;14.13;9.05;;;;;;;8.60;75.93;96072.13;5025088;28;20132;-65
2021/04/30 03:46:10;;;;;;;16.75;9.32;;;;;;;8.61;76.46;96071.78;5024961;28;20123;-62
2021/04/30 03:48:36;;;;;;;14.10;8.73;;;;;;;8.63;76.18;96068.69;5021975;28;20069;-62
2021/04/30 03:51:03;;;;;;;16.77;9.45;;;;;;;8.61;76.40;96074.50;5013536;28;20496;-61
2021/04/30 03:53:29;;;;;;;12.20;8.82;;;;;;;8.64;76.50;96070.22;5021685;28;20071;-63
2021/04/30 03:55:54;;;;;;;13.48;9.48;;;;;;;8.62;76.63;96078.00;5020887;28;20079;-63
2021/04/30 03:58:20;;;;;;;16.08;9.88;;;;;;;8.58;77.29;96069.78;5015465;28;20399;-63
2021/04/30 04:00:46;;;;;;;16.45;9.13;;;;;;;8.56;77.17;96074.81;5021024;28;20045;-65
2021/04/30 04:03:12;;;;;;;12.80;8.70;;;;;;;8.56;76.87;96076.78;5011944;28;20037;-63
2021/04/30 04:05:38;;;;;;;15.25;9.02;;;;;;;8.59;76.16;96073.31;5004603;28;20041;-63
2021/04/30 04:08:08;;;;;;;13.15;8.82;;;;;;;8.61;74.64;96060.06;5015978;28;20542;-62
2021/04/30 04:10:37;;;;;;;16.35;9.05;;;;;;;8.61;75.32;96068.25;5018209;28;20041;-64
2021/04/30 04:13:14;;;;;;;13.55;8.65;;;;;;;8.58;74.78;96066.25;5026426;28;20065;-62
2021/04/30 04:15:39;;;;;;;22.02;9.13;;;;;;;8.58;75.57;96066.25;5020938;28;20063;-64
2021/04/30 04:18:04;;;;;;;16.50;8.65;;;;;;;8.62;74.92;96067.09;5014460;28;20152;-61
2021/04/30 04:20:30;;;;;;;15.43;9.30;;;;;;;8.67;74.01;96068.72;5019425;28;20045;-64
2021/04/30 04:22:55;;;;;;;13.10;7.95;;;;;;;8.65;73.31;96071.81;5021104;28;20140;-63
2021/04/30 04:25:20;;;;;;;15.65;8.38;;;;;;;8.73;73.43;96075.44;5016172;28;20037;-64
2021/04/30 04:27:46;;;;;;;14.43;8.85;;;;;;;8.68;73.61;96079.28;5020050;28;20132;-64
2021/04/30 04:30:12;;;;;;;12.40;8.02;;;;;;;8.84;72.43;96081.03;5022127;28;20437;-62
2021/04/30 04:32:38;;;;;;;16.02;8.48;;;;;;;8.72;71.66;96087.53;5014969;28;20040;-64
2021/04/30 04:35:04;;;;;;;13.98;7.57;;;;;;;8.80;70.81;96100.91;5012117;28;20033;-62
2021/04/30 04:37:29;;;;;;;12.75;8.13;;;;;;;8.76;70.82;96107.47;5011915;28;20056;-64
2021/04/30 04:39:55;;;;;;;13.18;7.70;;;;;;;8.84;69.76;96114.59;5022332;28;20038;-64
2021/04/30 04:42:20;;;;;;;12.30;7.95;;;;;;;9.07;69.74;96119.19;5016827;28;20603;-65
2021/04/30 04:44:46;;;;;;;13.75;7.95;;;;;;;9.12;69.05;96125.09;5022647;28;20049;-66
2021/04/30 04:47:11;;;;;;;15.27;7.60;;;;;;;9.19;68.39;96127.16;5012077;28;20129;-64
2021/04/30 04:49:36;;;;;;;12.68;8.02;;;;;;;9.14;68.00;96122.00;5020909;28;20084;-64
2021/04/30 04:52:02;;;;;;;13.07;7.57;;;;;;;9.41;67.23;96122.72;5002188;28;20038;-62
2021/04/30 04:54:28;;;;;;;17.33;7.70;;;;;;;9.22;66.99;96131.06;5016943;28;20127;-63
2021/04/30 04:56:53;;;;;;;12.80;8.20;;;;;;;9.43;66.73;96123.13;5002792;28;20042;-63
2021/04/30 04:59:19;;;;;;;9.65;6.35;;;;;;;9.12;66.39;96116.91;5011477;28;20041;-65
2021/04/30 05:01:44;;;;;;;12.13;6.75;;;;;;;8.91;67.28;96106.50;5026253;28;20046;-63
2021/04/30 05:04:09;;;;;;;11.07;7.65;;;;;;;8.74;69.07;96096.91;5018995;28;20099;-62
2021/04/30 05:06:35;;;;;;;13.45;8.27;;;;;;;8.73;68.34;96089.06;5000417;28;20397;-63
2021/04/30 05:09:00;;;;;;;15.93;8.35;;;;;;;8.65;68.70;96073.78;5013560;28;20041;-63
2021/04/30 05:11:25;;;;;;;17.10;8.43;;;;;;;8.66;68.38;96058.94;5008779;28;20151;-62
2021/04/30 05:13:51;;;;;;;12.10;8.48;;;;;;;8.67;68.51;96055.06;5019665;28;20064;-63
2021/04/30 05:16:16;;;;;;;19.13;8.90;;;;;;;8.57;69.36;96049.09;5012547;28;20045;-63
2021/04/30 05:18:43;;;;;;;16.45;9.35;;;;;;;8.50;69.81;96043.56;5012173;28;20488;-64
2021/04/30 05:21:09;;;;;;;16.42;9.57;;;;;;;8.51;69.15;96047.06;5013868;28;21874;-63
2021/04/30 05:23:36;;;;;;;18.05;9.55;;;;;;;8.45;69.33;96049.31;5016970;28;20493;-62
2021/04/30 05:26:03;;;;;;;16.65;9.50;;;;;;;8.40;69.98;96063.25;5023402;28;20080;-62
2021/04/30 05:28:30;;;;;;;20.33;9.50;;;;;;;8.36;70.10;96052.28;5017481;28;20043;-65
2021/04/30 05:30:56;;;;;;;18.85;10.32;;;;;;;8.37;69.74;96064.78;5020449;28;20427;-64
2021/04/30 05:33:21;;;;;;;14.05;8.68;;;;;;;8.52;70.46;96073.22;5015646;28;20060;-65
2021/04/30 05:35:47;;;;;;;14.13;8.65;;;;;;;9.26;66.71;96082.72;5023457;28;20060;-63
2021/04/30 05:38:12;;;;;;;17.13;10.25;;;;;;;9.94;64.84;96086.16;5017367;28;20049;-61
2021/04/30 05:40:38;;;;;;;14.63;8.23;;;;;;;10.37;63.91;96089.28;5023176;28;20114;-64
2021/04/30 05:43:03;;;;;;;12.52;8.60;;;;;;;10.86;61.94;96084.50;5018259;28;20049;-61
2021/04/30 05:45:29;;;;;;;13.93;7.82;;;;;;;10.76;62.88;96077.00;5022463;28;20041;-64
2021/04/30 05:47:54;;;;;;;14.63;8.35;;;;;;;10.26;64.23;96069.19;5024567;28;20443;-64
2021/04/30 05:50:20;;;;;;;14.82;8.98;;;;;;;10.08;64.63;96066.31;5016695;28;20523;-66
2021/04/30 05:52:45;;;;;;;15.70;9.50;;;;;;;10.09;64.63;96065.19;5021995;28;20428;-64
2021/04/30 05:55:11;;;;;;;16.80;9.05;;;;;;;10.26;65.16;96056.31;5018208;28;20128;-62
2021/04/30 05:57:38;;;;;;;14.82;10.10;;;;;;;10.23;64.52;96061.78;5024373;28;20183;-62
2021/04/30 06:00:06;;;;;;;13.00;8.88;;;;;;;11.12;61.55;96064.25;5019641;28;20072;-62
2021/04/30 06:02:31;;;;;;;17.48;10.20;;;;;;;10.52;63.52;96058.06;5019007;28;20045;-64
2021/04/30 06:04:57;;;;;;;15.82;9.93;;;;;;;10.70;62.86;96057.41;5024336;28;20048;-63
2021/04/30 06:07:22;;;;;;;16.58;9.57;;;;;;;10.62;61.90;96056.56;5008242;28;20072;-64
2021/04/30 06:09:48;;;;;;;16.05;10.63;;;;;;;9.93;64.53;96049.78;5024379;28;20072;-65
2021/04/30 06:12:13;;;;;;;16.52;9.77;;;;;;;10.01;65.09;96053.41;5016999;28;20045;-63
2021/04/30 06:14:39;;;;;;;18.67;9.18;;;;;;;10.39;64.09;96065.03;5015441;28;20056;-63
2021/04/30 06:17:04;;;;;;;18.40;9.38;;;;;;;10.34;63.95;96051.69;5020656;28;20037;-61
2021/04/30 06:19:30;;;;;;;16.88;9.52;;;;;;;11.34;60.73;96039.66;5022187;28;20041;-64
2021/04/30 06:21:56;;;;;;;14.63;9.45;;;;;;;10.77;62.56;96037.47;5023960;28;20096;-65
2021/04/30 06:24:23;;;;;;;17.33;9.30;;;;;;;10.71;63.90;96042.53;5013657;28;21048;-65
2021/04/30 06:26:49;;;;;;;19.77;11.27;;;;;;;10.40;64.35;96041.19;5021841;28;20395;-63
2021/04/30 06:29:14;;;;;;;19.33;11.38;;;;;;;10.37;64.27;96034.53;5024966;28;20049;-63
2021/04/30 06:31:40;;;;;;;22.05;10.40;;;;;;;10.30;65.53;96037.19;5022015;28;20456;-62
2021/04/30 06:34:06;;;;;;;20.48;12.18;;;;;;;10.64;64.49;96037.00;5011421;28;20041;-63
2021/04/30 06:36:32;;;;;;;17.50;9.57;;;;;;;10.47;64.00;96024.78;5022180;28;20045;-66
2021/04/30 06:38:58;;;;;;;18.55;10.50;;;;;;;10.03;65.74;96018.22;5020085;28;20052;-63
2021/04/30 06:41:24;;;;;;;15.98;9.93;;;;;;;10.86;63.66;96016.00;5007311;28;20060;-64
2021/04/30 06:43:49;;;;;;;17.10;10.43;;;;;;;10.20;65.61;96011.31;5031957;28;20045;-64
2021/04/30 06:46:15;;;;;;;42.65;20.77;;;;;;;10.17;65.90;96008.53;5007492;28;20080;-63
2021/04/30 06:48:40;;;;;;;34.03;18.25;;;;;;;10.41;65.92;96002.47;5015924;28;20397;-65
2021/04/30 06:51:05;;;;;;;18.98;12.45;;;;;;;10.15;66.87;95992.50;5018113;28;20061;-64
2021/04/30 06:53:31;;;;;;;16.00;10.95;;;;;;;10.03;67.74;96003.75;5024993;28;20049;-63
2021/04/30 06:55:57;;;;;;;15.45;11.32;;;;;;;10.17;67.32;95987.44;5023334;28;20049;-65
2021/04/30 06:58:22;;;;;;;18.00;11.57;;;;;;;10.28;65.78;95991.03;5010949;28;20065;-65
2021/04/30 07:00:47;;;;;;;17.13;10.18;;;;;;;10.48;66.35;95974.38;5019464;28;20488;-63
2021/04/30 07:03:13;;;;;;;16.45;9.35;;;;;;;10.51;65.69;95981.78;5018457;28;20436;-65
2021/04/30 07:05:38;;;;;;;19.10;11.73;;;;;;;10.67;65.59;95976.78;5021930;28;20046;-65
2021/04/30 07:08:04;;;;;;;16.30;9.65;;;;;;;10.94;64.71;95975.72;5015188;28;20041;-60
2021/04/30 07:10:31;;;;;;;16.35;11.32;;;;;;;11.24;64.10;95970.69;5015084;28;20119;-64
2021/04/30 07:12:57;;;;;;;14.98;9.80;;;;;;;11.41;63.10;95965.63;5016121;28;20060;-64
2021/04/30 07:15:22;;;;;;;23.95;12.77;;;;;;;12.08;61.45;95972.31;5016810;28;20057;-66
2021/04/30 07:17:48;;;;;;;16.77;9.13;;;;;;;12.36;60.21;95957.75;5012958;28;20140;-65
2021/04/30 07:20:13;;;;;;;17.15;9.55;;;;;;;12.80;59.16;95953.69;5015118;28;20041;-64
2021/04/30 07:22:39;;;;;;;15.85;10.07;;;;;;;13.23;58.63;95946.41;5020544;28;20049;-63
2021/04/30 07:25:05;;;;;;;14.45;10.15;;;;;;;11.63;61.26;95939.81;5014763;28;20085;-62
2021/04/30 07:27:31;;;;;;;18.45;9.48;;;;;;;12.05;61.07;95923.72;5017753;28;20065;-64
2021/04/30 07:29:57;;;;;;;15.88;9.32;;;;;;;12.72;59.20;95915.66;5012255;28;20511;-65
2021/04/30 07:32:22;;;;;;;16.08;10.32;;;;;;;12.16;60.80;95912.72;5010836;28;20544;-63
2021/04/30 07:34:48;;;;;;;17.48;10.45;;;;;;;12.53;58.82;95909.47;5021940;28;20038;-65
2021/04/30 07:37:14;;;;;;;14.40;9.57;;;;;;;13.23;56.97;95918.91;5017666;28;20354;-66
2021/04/30 07:39:42;;;;;;;18.60;9.10;;;;;;;13.62;55.92;95899.38;5004870;28;20079;-65
2021/04/30 07:42:08;;;;;;;13.13;9.32;;;;;;;13.22;57.69;95920.06;4997873;28;20053;-62
2021/04/30 07:44:34;;;;;;;14.85;9.75;;;;;;;13.07;57.24;95922.94;5002096;28;20042;-66
2021/04/30 07:46:59;;;;;;;14.75;9.45;;;;;;;13.15;57.41;95929.94;5007161;28;20068;-63
2021/04/30 07:49:26;;;;;;;11.40;7.55;;;;;;;14.80;53.45;95930.47;5007163;28;20481;-64
2021/04/30 07:51:51;;;;;;;13.43;8.05;;;;;;;15.12;51.37;95934.75;5019697;28;20129;-64
2021/04/30 07:54:17;;;;;;;11.98;8.70;;;;;;;14.48;53.22;95933.56;4996794;28;20125;-63
2021/04/30 07:56:47;;;;;;;16.88;7.70;;;;;;;14.73;53.47;95938.81;5012825;28;20049;-62
2021/04/30 07:59:13;;;;;;;13.50;6.85;;;;;;;16.73;49.36;95939.59;5010474;28;20041;-63
2021/04/30 08:01:38;;;;;;;12.95;7.55;;;;;;;19.16;42.94;95930.50;5019823;28;20073;-64
2021/04/30 08:04:04;;;;;;;15.10;7.78;;;;;;;19.28;42.43;95926.97;5012346;28;20076;-62
2021/04/30 08:06:30;;;;;;;15.82;7.40;;;;;;;19.22;41.34;95931.53;5001938;28;20045;-64
2021/04/30 08:08:55;;;;;;;14.13;6.90;;;;;;;17.36;45.25;95924.84;5009634;28;20042;-64
2021/04/30 08:11:20;;;;;;;12.15;7.28;;;;;;;17.12;46.33;95935.25;5012193;28;20044;-64
2021/04/30 08:13:46;;;;;;;11.43;7.45;;;;;;;17.14;44.73;95929.28;5021584;28;20041;-65
2021/04/30 08:16:12;;;;;;;13.50;7.65;;;;;;;19.62;41.56;95933.88;5017009;28;20043;-63
2021/04/30 08:18:39;;;;;;;11.63;7.15;;;;;;;20.97;38.05;95930.50;5021703;28;20049;-62
2021/04/30 08:21:05;;;;;;;10.85;6.65;;;;;;;21.53;38.07;95930.81;5016930;28;20045;-61
2021/04/30 08:23:30;;;;;;;10.00;7.03;;;;;;;22.66;34.25;95929.34;5021654;28;20123;-64
2021/04/30 08:25:56;;;;;;;14.60;7.00;;;;;;;19.80;40.85;95931.31;5018582;28;20493;-65
2021/04/30 08:28:22;;;;;;;12.85;7.20;;;;;;;18.52;41.34;95926.31;5013972;28;20100;-65
2021/04/30 08:30:47;;;;;;;12.45;7.05;;;;;;;19.48;41.16;95910.91;5012405;28;20385;-62
2021/04/30 08:33:12;;;;;;;11.02;6.25;;;;;;;21.20;38.27;95895.84;5008994;28;20042;-64
2021/04/30 08:35:38;;;;;;;14.75;7.38;;;;;;;16.94;45.59;95890.59;5017686;28;20092;-65
2021/04/30 08:38:04;;;;;;;9.35;7.60;;;;;;;15.84;48.52;95890.31;5011781;28;20095;-62
2021/04/30 08:40:30;;;;;;;10.65;7.47;;;;;;;16.51;47.24;95902.50;5016963;28;20390;-64
2021/04/30 08:42:58;;;;;;;9.00;6.13;;;;;;;16.11;50.40;95892.19;5018648;28;20535;-63
2021/04/30 08:45:24;;;;;;;12.00;6.70;;;;;;;17.84;46.16;95888.50;5016125;28;20060;-63
2021/04/30 08:47:49;;;;;;;12.95;7.32;;;;;;;15.14;51.65;95885.47;5012108;28;20037;-62
2021/04/30 08:50:16;;;;;;;15.98;8.70;;;;;;;15.37;52.47;95884.75;4997578;28;20061;-64
2021/04/30 08:52:42;;;;;;;11.63;6.32;;;;;;;16.18;50.05;95881.03;5020491;28;20041;-63
2021/04/30 08:55:14;;;;;;;10.02;6.47;;;;;;;16.05;48.82;95874.56;5016213;28;20052;-62
2021/04/30 08:57:41;;;;;;;11.70;7.60;;;;;;;15.76;50.57;95875.06;5021378;28;20053;-63
2021/04/30 09:00:08;;;;;;;12.40;6.72;;;;;;;16.03;49.68;95877.75;5017822;28;20049;-63
2021/04/30 09:02:38;;;;;;;10.00;6.25;;;;;;;15.67;51.25;95885.84;5020660;28;20038;-64
2021/04/30 09:05:05;;;;;;;10.93;7.05;;;;;;;15.41;50.09;95888.25;5006156;28;20034;-64
2021/04/30 09:07:31;;;;;;;13.63;6.85;;;;;;;15.77;51.00;95867.56;5011341;28;20046;-64
2021/04/30 09:10:05;;;;;;;9.20;6.45;;;;;;;16.88;49.35;95865.44;5013132;28;20048;-62
2021/04/30 09:12:32;;;;;;;11.85;7.05;;;;;;;16.00;49.02;95861.25;5020108;28;20553;-64
2021/04/30 09:14:58;;;;;;;9.20;5.82;;;;;;;17.66;46.99;95856.50;5020757;28;20049;-63
2021/04/30 09:17:27;;;;;;;9.55;6.38;;;;;;;15.84;50.71;95856.41;5015903;28;20105;-64
2021/04/30 09:19:56;;;;;;;10.98;7.43;;;;;;;14.70;52.94;95851.44;5021346;28;20037;-64
2021/04/30 09:22:23;;;;;;;;;;;;;;;14.46;52.87;95853.31;5014479;28;20060;-63
2021/04/30 09:25:00;;;;;;;11.23;7.07;;;;;;;14.82;53.83;95856.41;5013336;28;20549;-63
2021/04/30 09:27:45;;;;;;;13.02;8.55;;;;;;;14.76;53.34;95852.53;5014528;28;20045;-64
2021/04/30 09:30:20;;;;;;;15.30;9.20;;;;;;;14.80;53.75;95852.47;5015477;28;20483;-63
2021/04/30 09:33:08;;;;;;;10.45;7.40;;;;;;;15.01;53.16;95852.19;5012096;28;20135;-65
2021/04/30 09:35:38;;;;;;;10.32;7.07;;;;;;;15.72;51.56;95855.00;5020834;28;20132;-64
2021/04/30 09:38:34;;;;;;;13.93;7.78;;;;;;;15.84;51.74;95861.91;5016184;28;20045;-63
2021/04/30 09:41:07;;;;;;;9.48;6.30;;;;;;;18.44;45.11;95861.22;5000608;28;20045;-65
2021/04/30 09:43:50;;;;;;;10.25;6.40;;;;;;;17.80;46.60;95858.13;5019958;28;20042;-64
2021/04/30 09:46:34;;;;;;;9.23;6.65;;;;;;;18.12;43.63;95868.41;5009808;28;20137;-63
2021/04/30 09:49:05;;;;;;;13.93;7.63;;;;;;;17.36;45.83;95868.72;5023477;28;20373;-63
2021/04/30 09:51:46;;;;;;;12.45;7.68;;;;;;;17.74;45.10;95866.19;5024984;28;20041;-63
2021/04/30 09:54:32;;;;;;;11.00;7.18;;;;;;;18.85;43.18;95862.44;5007983;28;20120;-63
2021/04/30 09:57:22;;;;;;;7.63;5.68;;;;;;;20.79;38.78;95860.81;5023157;28;20053;-62
2021/04/30 10:00:13;;;;;;;7.90;5.15;;;;;;;21.88;36.32;95858.19;5039362;28;20041;-63
2021/04/30 10:02:39;;;;;;;8.85;5.47;;;;;;;21.11;36.82;95854.03;5020788;28;20041;-64
2021/04/30 10:05:12;;;;;;;9.23;6.68;;;;;;;20.27;39.87;95845.59;5009039;28;20048;-63
2021/04/30 10:07:40;;;;;;;11.82;7.28;;;;;;;18.17;42.32;95844.94;5017271;28;20048;-62
2021/04/30 10:10:07;;;;;;;11.45;6.97;;;;;;;18.42;43.69;95843.44;5014998;28;20041;-63
2021/04/30 10:12:34;;;;;;;11.23;6.93;;;;;;;17.82;44.46;95833.53;5019099;28;20065;-64
2021/04/30 10:15:00;;;;;;;14.07;5.95;;;;;;;18.72;43.48;95833.88;5019885;28;20037;-64
2021/04/30 10:17:26;;;;;;;11.82;7.43;;;;;;;18.39;44.54;95836.81;5006578;28;20095;-64
2021/04/30 10:19:52;;;;;;;10.38;6.70;;;;;;;17.34;46.35;95837.91;5019937;28;20512;-65
2021/04/30 10:22:23;;;;;;;10.30;7.28;;;;;;;17.19;47.21;95835.47;5017403;28;20037;-64
2021/04/30 10:24:54;;;;;;;11.55;7.40;;;;;;;16.56;48.57;95830.16;5024474;28;20037;-63
2021/04/30 10:27:26;;;;;;;10.93;7.20;;;;;;;17.49;47.13;95825.28;5019328;28;20038;-65
2021/04/30 10:29:58;;;;;;;12.70;7.72;;;;;;;18.30;45.72;95812.50;5023098;28;20073;-64
2021/04/30 10:32:27;;;;;;;11.82;7.80;;;;;;;17.08;46.04;95817.59;5022294;28;20092;-64
2021/04/30 10:34:53;;;;;;;13.52;7.68;;;;;;;19.40;41.93;95811.59;5031449;28;20107;-64
2021/04/30 10:37:24;;;;;;;9.82;5.70;;;;;;;20.79;39.05;95807.94;5013683;28;20042;-65
2021/04/30 10:39:58;;;;;;;12.18;7.10;;;;;;;21.62;37.45;95805.47;5022960;28;20187;-64
2021/04/30 10:42:28;;;;;;;14.18;7.40;;;;;;;22.31;35.58;95815.31;5018651;28;20098;-64
2021/04/30 10:45:01;;;;;;;;;;;;;;;22.84;35.68;95807.75;5024017;28;20102;-64
2021/04/30 10:47:27;;;;;;;10.27;6.97;;;;;;;20.72;37.35;95802.66;5018338;28;19917;-64
2021/04/30 10:50:11;;;;;;;13.45;8.48;;;;;;;21.13;37.44;95809.78;5018694;28;20091;-63
2021/04/30 10:52:36;;;;;;;10.70;6.95;;;;;;;19.41;40.36;95796.47;5000552;28;20050;-64
2021/04/30 10:55:11;;;;;;;9.70;6.80;;;;;;;19.16;41.47;95792.53;5018220;28;20053;-62
2021/04/30 10:57:49;;;;;;;11.73;6.88;;;;;;;20.36;39.08;95785.25;5012646;28;20381;-64
2021/04/30 11:00:14;;;;;;;11.75;6.97;;;;;;;20.09;38.57;95771.94;5007599;28;20038;-63
2021/04/30 11:02:40;;;;;;;11.27;6.70;;;;;;;20.91;38.63;95776.47;5003090;28;20709;-64
2021/04/30 11:05:12;;;;;;;9.00;6.13;;;;;;;20.86;37.97;95773.50;5013105;28;20067;-62
2021/04/30 11:07:41;;;;;;;10.40;6.75;;;;;;;21.08;38.74;95771.41;5023287;28;20052;-64
2021/04/30 11:10:30;;;;;;;7.95;5.53;;;;;;;20.45;39.78;95756.72;5017247;28;20067;-64
2021/04/30 11:12:56;;;;;;;11.15;5.38;;;;;;;21.16;38.67;95761.56;5022743;28;20132;-64
2021/04/30 11:15:23;;;;;;;10.70;6.28;;;;;;;18.77;43.85;95752.13;5017694;28;20042;-63
2021/04/30 11:17:53;;;;;;;12.05;7.93;;;;;;;18.92;41.88;95747.69;5023268;28;20041;-63
2021/04/30 11:20:22;;;;;;;13.05;6.40;;;;;;;19.00;42.32;95751.03;5009966;28;20042;-62
2021/04/30 11:23:13;;;;;;;9.43;6.13;;;;;;;19.63;41.61;95746.56;5021910;28;20634;-64
2021/04/30 11:26:00;;;;;;;12.50;6.35;;;;;;;20.65;39.62;95741.72;5024242;28;20072;-65
2021/04/30 11:28:29;;;;;;;8.63;5.25;;;;;;;21.14;38.17;95738.97;5016518;28;20753;-65
2021/04/30 11:31:24;;;;;;;9.60;5.80;;;;;;;19.67;41.33;95738.88;5014122;28;20401;-64